sensor_id;sensor_type;location;lat;lon;timestamp;pressure;altitude;pressure_sealevel;temperature;humidity
60319;BME280;46163;52.306;5.634;2024-01-11T00:02:08;103250.25;;;-7.52;86.06
60319;BME280;46163;52.306;5.634;2024-01-11T00:04:33;103248.75;;;-7.65;85.71
60319;BME280;46163;52.306;5.634;2024-01-11T00:06:59;103250.44;;;-7.64;86.38
60319;BME280;46163;52.306;5.634;2024-01-11T00:09:24;103253.94;;;-7.67;86.13
60319;BME280;46163;52.306;5.634;2024-01-11T00:11:50;103247.00;;;-7.65;86.54
60319;BME280;46163;52.306;5.634;2024-01-11T00:14:15;103253.03;;;-7.63;86.80
60319;BME280;46163;52.306;5.634;2024-01-11T00:16:41;103242.88;;;-7.75;86.89
60319;BME280;46163;52.306;5.634;2024-01-11T00:19:07;103253.25;;;-7.78;87.34
60319;BME280;46163;52.306;5.634;2024-01-11T00:21:32;103250.84;;;-7.89;87.39
60319;BME280;46163;52.306;5.634;2024-01-11T00:23:58;103236.22;;;-7.91;87.15
60319;BME280;46163;52.306;5.634;2024-01-11T00:26:23;103243.13;;;-7.92;88.09
60319;BME280;46163;52.306;5.634;2024-01-11T00:28:48;103232.78;;;-7.90;94.43
60319;BME280;46163;52.306;5.634;2024-01-11T00:31:14;103227.56;;;-8.47;86.21
60319;BME280;46163;52.306;5.634;2024-01-11T00:33:40;103244.66;;;-9.09;82.94
60319;BME280;46163;52.306;5.634;2024-01-11T00:36:05;103241.72;;;-9.63;79.93
60319;BME280;46163;52.306;5.634;2024-01-11T00:38:31;103236.13;;;-10.27;78.87
60319;BME280;46163;52.306;5.634;2024-01-11T00:40:56;103248.19;;;-10.29;79.46
60319;BME280;46163;52.306;5.634;2024-01-11T00:43:22;103245.66;;;-10.39;83.83
60319;BME280;46163;52.306;5.634;2024-01-11T00:45:48;103247.41;;;-10.47;80.69
60319;BME280;46163;52.306;5.634;2024-01-11T00:48:13;103243.34;;;-11.19;78.96
60319;BME280;46163;52.306;5.634;2024-01-11T00:50:39;103255.38;;;-11.44;81.77
60319;BME280;46163;52.306;5.634;2024-01-11T00:53:04;103237.41;;;-11.82;81.01
60319;BME280;46163;52.306;5.634;2024-01-11T00:55:30;103232.25;;;-12.15;82.16
60319;BME280;46163;52.306;5.634;2024-01-11T00:57:55;103244.13;;;-12.43;83.51
60319;BME280;46163;52.306;5.634;2024-01-11T01:00:20;103239.00;;;-12.46;84.38
60319;BME280;46163;52.306;5.634;2024-01-11T01:02:46;103232.03;;;-12.82;86.33
60319;BME280;46163;52.306;5.634;2024-01-11T01:05:11;103239.66;;;-12.86;89.42
60319;BME280;46163;52.306;5.634;2024-01-11T01:07:37;103252.66;;;-12.58;91.38
60319;BME280;46163;52.306;5.634;2024-01-11T01:10:02;103250.97;;;-12.45;92.75
60319;BME280;46163;52.306;5.634;2024-01-11T01:12:28;103246.78;;;-12.13;95.52
60319;BME280;46163;52.306;5.634;2024-01-11T01:14:54;103252.78;;;-11.22;98.29
60319;BME280;46163;52.306;5.634;2024-01-11T01:17:21;103256.75;;;-10.27;100.00
60319;BME280;46163;52.306;5.634;2024-01-11T01:19:47;103261.22;;;-9.35;100.00
60319;BME280;46163;52.306;5.634;2024-01-11T01:22:12;103242.97;;;-9.14;100.00
60319;BME280;46163;52.306;5.634;2024-01-11T01:24:38;103242.78;;;-8.97;97.62
60319;BME280;46163;52.306;5.634;2024-01-11T01:27:03;103244.44;;;-8.91;95.86
60319;BME280;46163;52.306;5.634;2024-01-11T01:29:29;103237.50;;;-8.86;96.47
60319;BME280;46163;52.306;5.634;2024-01-11T01:31:54;103233.13;;;-8.79;95.03
60319;BME280;46163;52.306;5.634;2024-01-11T01:34:19;103244.19;;;-8.68;95.23
60319;BME280;46163;52.306;5.634;2024-01-11T01:36:45;103256.22;;;-8.66;93.96
60319;BME280;46163;52.306;5.634;2024-01-11T01:39:11;103224.56;;;-8.83;93.61
60319;BME280;46163;52.306;5.634;2024-01-11T01:41:36;103241.63;;;-8.70;94.36
60319;BME280;46163;52.306;5.634;2024-01-11T01:44:02;103256.94;;;-8.56;94.24
60319;BME280;46163;52.306;5.634;2024-01-11T01:46:28;103269.03;;;-8.58;93.59
60319;BME280;46163;52.306;5.634;2024-01-11T01:48:55;103244.19;;;-8.70;93.27
60319;BME280;46163;52.306;5.634;2024-01-11T01:51:22;103279.22;;;-8.47;94.09
60319;BME280;46163;52.306;5.634;2024-01-11T01:53:48;103276.69;;;-8.50;93.25
60319;BME280;46163;52.306;5.634;2024-01-11T01:56:15;103273.22;;;-8.48;94.45
60319;BME280;46163;52.306;5.634;2024-01-11T01:58:42;103280.94;;;-8.46;92.78
60319;BME280;46163;52.306;5.634;2024-01-11T02:01:08;103261.22;;;-8.53;93.64
60319;BME280;46163;52.306;5.634;2024-01-11T02:03:35;103277.47;;;-8.42;94.92
60319;BME280;46163;52.306;5.634;2024-01-11T02:06:02;103264.53;;;-8.42;94.21
60319;BME280;46163;52.306;5.634;2024-01-11T02:08:30;103261.94;;;-8.44;94.39
60319;BME280;46163;52.306;5.634;2024-01-11T02:10:58;103255.91;;;-8.41;94.10
60319;BME280;46163;52.306;5.634;2024-01-11T02:13:24;103258.97;;;-8.81;94.74
60319;BME280;46163;52.306;5.634;2024-01-11T02:15:50;103252.09;;;-8.82;95.33
60319;BME280;46163;52.306;5.634;2024-01-11T02:18:15;103268.16;;;-8.60;94.00
60319;BME280;46163;52.306;5.634;2024-01-11T02:20:41;103278.03;;;-8.94;91.98
60319;BME280;46163;52.306;5.634;2024-01-11T02:23:17;103273.19;;;-9.26;90.65
60319;BME280;46163;52.306;5.634;2024-01-11T02:25:44;103279.66;;;-9.87;85.80
60319;BME280;46163;52.306;5.634;2024-01-11T02:28:09;103265.56;;;-10.89;82.44
60319;BME280;46163;52.306;5.634;2024-01-11T02:30:36;103275.94;;;-11.63;83.11
60319;BME280;46163;52.306;5.634;2024-01-11T02:33:01;103274.97;;;-12.25;88.58
60319;BME280;46163;52.306;5.634;2024-01-11T02:35:27;103264.81;;;-11.96;94.62
60319;BME280;46163;52.306;5.634;2024-01-11T02:37:54;103259.59;;;-11.06;99.61
60319;BME280;46163;52.306;5.634;2024-01-11T02:40:20;103253.72;;;-9.62;100.00
60319;BME280;46163;52.306;5.634;2024-01-11T02:42:45;103262.75;;;-9.14;100.00
60319;BME280;46163;52.306;5.634;2024-01-11T02:45:11;103268.56;;;-8.95;97.95
60319;BME280;46163;52.306;5.634;2024-01-11T02:47:39;103267.63;;;-8.88;95.94
60319;BME280;46163;52.306;5.634;2024-01-11T02:50:06;103274.50;;;-8.84;96.09
60319;BME280;46163;52.306;5.634;2024-01-11T02:52:33;103274.34;;;-8.72;96.77
60319;BME280;46163;52.306;5.634;2024-01-11T02:54:58;103259.72;;;-8.73;96.54
60319;BME280;46163;52.306;5.634;2024-01-11T02:57:24;103263.88;;;-8.61;96.87
60319;BME280;46163;52.306;5.634;2024-01-11T02:59:49;103265.63;;;-8.63;97.20
60319;BME280;46163;52.306;5.634;2024-01-11T03:02:14;103275.13;;;-8.64;95.93
60319;BME280;46163;52.306;5.634;2024-01-11T03:04:40;103257.88;;;-8.63;96.70
60319;BME280;46163;52.306;5.634;2024-01-11T03:07:05;103252.81;;;-8.71;95.49
60319;BME280;46163;52.306;5.634;2024-01-11T03:09:31;103255.28;;;-8.59;96.55
60319;BME280;46163;52.306;5.634;2024-01-11T03:11:56;103263.00;;;-8.59;96.09
60319;BME280;46163;52.306;5.634;2024-01-11T03:14:21;103268.94;;;-8.50;97.11
60319;BME280;46163;52.306;5.634;2024-01-11T03:16:47;103250.97;;;-8.60;96.96
60319;BME280;46163;52.306;5.634;2024-01-11T03:19:12;103258.63;;;-8.53;96.56
60319;BME280;46163;52.306;5.634;2024-01-11T03:21:43;103260.41;;;-8.57;96.14
60319;BME280;46163;52.306;5.634;2024-01-11T03:24:09;103262.91;;;-8.52;96.32
60319;BME280;46163;52.306;5.634;2024-01-11T03:26:34;103257.78;;;-8.54;96.90
60319;BME280;46163;52.306;5.634;2024-01-11T03:29:00;103259.69;;;-8.70;96.53
60319;BME280;46163;52.306;5.634;2024-01-11T03:31:25;103265.50;;;-8.49;96.81
60319;BME280;46163;52.306;5.634;2024-01-11T03:33:51;103265.78;;;-8.75;96.01
60319;BME280;46163;52.306;5.634;2024-01-11T03:36:16;103272.38;;;-9.33;89.02
60319;BME280;46163;52.306;5.634;2024-01-11T03:38:42;103284.25;;;-10.32;85.31
60319;BME280;46163;52.306;5.634;2024-01-11T03:41:08;103298.19;;;-11.21;83.55
60319;BME280;46163;52.306;5.634;2024-01-11T03:43:37;103292.22;;;-11.87;87.06
60319;BME280;46163;52.306;5.634;2024-01-11T03:46:03;103290.38;;;-12.28;91.43
60319;BME280;46163;52.306;5.634;2024-01-11T03:48:28;103287.03;;;-11.08;99.78
60319;BME280;46163;52.306;5.634;2024-01-11T03:50:54;103278.63;;;-9.64;100.00
60319;BME280;46163;52.306;5.634;2024-01-11T03:53:19;103296.28;;;-9.16;100.00
60319;BME280;46163;52.306;5.634;2024-01-11T03:55:45;103282.44;;;-9.05;100.00
60319;BME280;46163;52.306;5.634;2024-01-11T03:58:10;103300.28;;;-8.84;100.00
60319;BME280;46163;52.306;5.634;2024-01-11T04:00:36;103306.25;;;-8.79;99.01
60319;BME280;46163;52.306;5.634;2024-01-11T04:03:01;103296.72;;;-8.72;98.33
60319;BME280;46163;52.306;5.634;2024-01-11T04:05:27;103304.50;;;-8.75;97.22
60319;BME280;46163;52.306;5.634;2024-01-11T04:07:53;103311.31;;;-8.67;97.60
60319;BME280;46163;52.306;5.634;2024-01-11T04:10:18;103292.41;;;-8.72;96.97
60319;BME280;46163;52.306;5.634;2024-01-11T04:12:44;103301.75;;;-8.62;96.69
60319;BME280;46163;52.306;5.634;2024-01-11T04:15:12;103299.94;;;-8.53;97.73
60319;BME280;46163;52.306;5.634;2024-01-11T04:17:38;103305.94;;;-8.50;97.77
60319;BME280;46163;52.306;5.634;2024-01-11T04:20:04;103299.88;;;-8.47;96.86
60319;BME280;46163;52.306;5.634;2024-01-11T04:22:30;103311.06;;;-8.47;95.54
60319;BME280;46163;52.306;5.634;2024-01-11T04:24:55;103320.56;;;-8.49;97.34
60319;BME280;46163;52.306;5.634;2024-01-11T04:27:21;103320.59;;;-8.52;95.66
60319;BME280;46163;52.306;5.634;2024-01-11T04:29:46;103319.88;;;-8.65;94.40
60319;BME280;46163;52.306;5.634;2024-01-11T04:32:12;103330.94;;;-8.53;96.21
60319;BME280;46163;52.306;5.634;2024-01-11T04:34:37;103298.31;;;-8.59;96.40
60319;BME280;46163;52.306;5.634;2024-01-11T04:37:03;103320.69;;;-8.60;95.65
60319;BME280;46163;52.306;5.634;2024-01-11T04:39:28;103331.84;;;-8.58;95.96
60319;BME280;46163;52.306;5.634;2024-01-11T04:41:53;103310.28;;;-8.53;96.70
60319;BME280;46163;52.306;5.634;2024-01-11T04:44:19;103313.69;;;-8.50;96.14
60319;BME280;46163;52.306;5.634;2024-01-11T04:46:44;103323.78;;;-9.12;93.20
60319;BME280;46163;52.306;5.634;2024-01-11T04:49:09;103314.81;;;-8.74;97.19
60319;BME280;46163;52.306;5.634;2024-01-11T04:51:35;103323.53;;;-10.02;85.95
60319;BME280;46163;52.306;5.634;2024-01-11T04:54:00;103327.34;;;-11.44;84.21
60319;BME280;46163;52.306;5.634;2024-01-11T04:56:26;103323.81;;;-12.11;88.80
60319;BME280;46163;52.306;5.634;2024-01-11T04:58:51;103323.84;;;-12.04;94.62
60319;BME280;46163;52.306;5.634;2024-01-11T05:01:17;103323.06;;;-11.11;99.11
60319;BME280;46163;52.306;5.634;2024-01-11T05:03:44;103303.63;;;-9.73;100.00
60319;BME280;46163;52.306;5.634;2024-01-11T05:06:20;103311.78;;;-9.16;100.00
60319;BME280;46163;52.306;5.634;2024-01-11T05:08:46;103303.84;;;-8.97;99.03
60319;BME280;46163;52.306;5.634;2024-01-11T05:11:19;103284.91;;;-8.96;100.00
60319;BME280;46163;52.306;5.634;2024-01-11T05:13:45;103267.69;;;-8.93;97.84
60319;BME280;46163;52.306;5.634;2024-01-11T05:16:20;103279.53;;;-8.73;98.32
60319;BME280;46163;52.306;5.634;2024-01-11T05:18:46;103263.09;;;-8.65;99.18
60319;BME280;46163;52.306;5.634;2024-01-11T05:21:11;103268.19;;;-8.59;98.97
60319;BME280;46163;52.306;5.634;2024-01-11T05:23:37;103282.84;;;-8.62;97.59
60319;BME280;46163;52.306;5.634;2024-01-11T05:26:02;103287.31;;;-8.79;94.60
60319;BME280;46163;52.306;5.634;2024-01-11T05:28:29;103280.31;;;-8.67;97.54
60319;BME280;46163;52.306;5.634;2024-01-11T05:30:54;103270.94;;;-8.74;97.00
60319;BME280;46163;52.306;5.634;2024-01-11T05:33:20;103288.16;;;-9.71;92.97
60319;BME280;46163;52.306;5.634;2024-01-11T05:35:45;103278.50;;;-11.42;81.90
60319;BME280;46163;52.306;5.634;2024-01-11T05:38:11;103283.31;;;-12.82;83.80
60319;BME280;46163;52.306;5.634;2024-01-11T05:40:36;103281.06;;;-11.51;98.50
60319;BME280;46163;52.306;5.634;2024-01-11T05:43:01;103291.00;;;-10.15;100.00
60319;BME280;46163;52.306;5.634;2024-01-11T05:45:27;103294.72;;;-9.29;100.00
60319;BME280;46163;52.306;5.634;2024-01-11T05:47:52;103290.25;;;-9.13;100.00
60319;BME280;46163;52.306;5.634;2024-01-11T05:50:18;103285.94;;;-9.13;100.00
60319;BME280;46163;52.306;5.634;2024-01-11T05:52:43;103306.50;;;-9.02;100.00
60319;BME280;46163;52.306;5.634;2024-01-11T05:55:09;103327.13;;;-9.03;98.17
60319;BME280;46163;52.306;5.634;2024-01-11T05:57:34;103334.00;;;-8.99;100.00
60319;BME280;46163;52.306;5.634;2024-01-11T05:59:59;103327.19;;;-9.09;98.18
60319;BME280;46163;52.306;5.634;2024-01-11T06:02:24;103347.00;;;-9.10;95.06
60319;BME280;46163;52.306;5.634;2024-01-11T06:04:50;103349.56;;;-9.08;95.10
60319;BME280;46163;52.306;5.634;2024-01-11T06:07:15;103348.75;;;-9.12;96.68
60319;BME280;46163;52.306;5.634;2024-01-11T06:09:41;103351.22;;;-9.03;96.94
60319;BME280;46163;52.306;5.634;2024-01-11T06:12:06;103349.47;;;-8.99;96.16
60319;BME280;46163;52.306;5.634;2024-01-11T06:14:32;103361.75;;;-9.32;92.42
60319;BME280;46163;52.306;5.634;2024-01-11T06:16:57;103375.31;;;-11.33;79.08
60319;BME280;46163;52.306;5.634;2024-01-11T06:19:23;103383.81;;;-11.89;86.18
60319;BME280;46163;52.306;5.634;2024-01-11T06:21:48;103388.19;;;-10.91;96.30
60319;BME280;46163;52.306;5.634;2024-01-11T06:24:14;103393.66;;;-9.42;100.00
60319;BME280;46163;52.306;5.634;2024-01-11T06:26:39;103389.16;;;-9.14;100.00
60319;BME280;46163;52.306;5.634;2024-01-11T06:29:04;103406.25;;;-8.99;100.00
60319;BME280;46163;52.306;5.634;2024-01-11T06:31:30;103406.16;;;-8.90;99.80
60319;BME280;46163;52.306;5.634;2024-01-11T06:33:55;103396.69;;;-8.90;100.00
60319;BME280;46163;52.306;5.634;2024-01-11T06:36:21;103402.66;;;-8.81;99.73
60319;BME280;46163;52.306;5.634;2024-01-11T06:38:46;103405.09;;;-8.66;99.92
60319;BME280;46163;52.306;5.634;2024-01-11T06:41:11;103402.44;;;-8.62;100.00
60319;BME280;46163;52.306;5.634;2024-01-11T06:43:37;103405.88;;;-8.61;97.64
60319;BME280;46163;52.306;5.634;2024-01-11T06:46:04;103402.44;;;-8.59;98.94
60319;BME280;46163;52.306;5.634;2024-01-11T06:48:30;103398.09;;;-8.55;99.07
60319;BME280;46163;52.306;5.634;2024-01-11T06:50:55;103381.81;;;-8.63;98.37
60319;BME280;46163;52.306;5.634;2024-01-11T06:53:21;103392.31;;;-8.80;97.21
60319;BME280;46163;52.306;5.634;2024-01-11T06:55:46;103382.75;;;-8.70;98.07
60319;BME280;46163;52.306;5.634;2024-01-11T06:58:13;103389.38;;;-9.49;91.82
60319;BME280;46163;52.306;5.634;2024-01-11T07:00:38;103390.59;;;-12.01;85.06
60319;BME280;46163;52.306;5.634;2024-01-11T07:03:09;103388.13;;;-10.60;97.19
60319;BME280;46163;52.306;5.634;2024-01-11T07:05:34;103368.69;;;-9.40;100.00
60319;BME280;46163;52.306;5.634;2024-01-11T07:08:00;103364.91;;;-8.96;100.00
60319;BME280;46163;52.306;5.634;2024-01-11T07:10:25;103351.13;;;-8.92;98.15
60319;BME280;46163;52.306;5.634;2024-01-11T07:12:50;103354.50;;;-8.86;98.49
60319;BME280;46163;52.306;5.634;2024-01-11T07:15:16;103361.31;;;-8.80;98.26
60319;BME280;46163;52.306;5.634;2024-01-11T07:17:42;103346.78;;;-8.89;99.15
60319;BME280;46163;52.306;5.634;2024-01-11T07:20:08;103372.53;;;-8.82;97.45
60319;BME280;46163;52.306;5.634;2024-01-11T07:22:34;103329.72;;;-9.03;96.93
60319;BME280;46163;52.306;5.634;2024-01-11T07:25:00;103369.91;;;-8.78;96.93
60319;BME280;46163;52.306;5.634;2024-01-11T07:27:25;103381.03;;;-8.71;98.57
60319;BME280;46163;52.306;5.634;2024-01-11T07:29:51;103385.31;;;-8.67;98.82
60319;BME280;46163;52.306;5.634;2024-01-11T07:32:16;103359.63;;;-8.81;98.60
60319;BME280;46163;52.306;5.634;2024-01-11T07:34:41;103393.50;;;-9.22;95.22
60319;BME280;46163;52.306;5.634;2024-01-11T07:37:07;103399.28;;;-10.53;81.88
60319;BME280;46163;52.306;5.634;2024-01-11T07:39:33;103396.75;;;-10.76;84.01
60319;BME280;46163;52.306;5.634;2024-01-11T07:41:59;103391.22;;;-12.47;86.37
60319;BME280;46163;52.306;5.634;2024-01-11T07:44:25;103402.75;;;-11.19;96.88
60319;BME280;46163;52.306;5.634;2024-01-11T07:46:50;103390.44;;;-9.82;100.00
60319;BME280;46163;52.306;5.634;2024-01-11T07:49:16;103386.63;;;-9.23;100.00
60319;BME280;46163;52.306;5.634;2024-01-11T07:51:41;103363.38;;;-9.16;98.48
60319;BME280;46163;52.306;5.634;2024-01-11T07:54:07;103359.06;;;-9.12;97.50
60319;BME280;46163;52.306;5.634;2024-01-11T07:56:32;103363.25;;;-9.05;97.24
60319;BME280;46163;52.306;5.634;2024-01-11T07:58:57;103367.47;;;-8.92;99.10
60319;BME280;46163;52.306;5.634;2024-01-11T08:01:23;103367.38;;;-8.81;98.16
60319;BME280;46163;52.306;5.634;2024-01-11T08:03:48;103370.69;;;-8.68;99.04
60319;BME280;46163;52.306;5.634;2024-01-11T08:06:17;103369.13;;;-8.83;97.72
60319;BME280;46163;52.306;5.634;2024-01-11T08:08:42;103383.53;;;-8.64;98.19
60319;BME280;46163;52.306;5.634;2024-01-11T08:11:08;103394.69;;;-8.59;98.79
60319;BME280;46163;52.306;5.634;2024-01-11T08:13:33;103391.19;;;-8.55;98.43
60319;BME280;46163;52.306;5.634;2024-01-11T08:16:03;103395.50;;;-8.53;97.09
60319;BME280;46163;52.306;5.634;2024-01-11T08:18:30;103399.31;;;-8.93;94.73
60319;BME280;46163;52.306;5.634;2024-01-11T08:20:56;103412.19;;;-10.82;81.10
60319;BME280;46163;52.306;5.634;2024-01-11T08:23:22;103413.56;;;-12.30;82.48
60319;BME280;46163;52.306;5.634;2024-01-11T08:25:47;103411.31;;;-11.26;96.58
60319;BME280;46163;52.306;5.634;2024-01-11T08:28:13;103413.69;;;-9.96;100.00
60319;BME280;46163;52.306;5.634;2024-01-11T08:30:38;103426.81;;;-8.92;100.00
60319;BME280;46163;52.306;5.634;2024-01-11T08:33:03;103422.19;;;-8.55;100.00
60319;BME280;46163;52.306;5.634;2024-01-11T08:35:29;103425.38;;;-8.31;100.00
60319;BME280;46163;52.306;5.634;2024-01-11T08:37:55;103419.19;;;-8.16;100.00
60319;BME280;46163;52.306;5.634;2024-01-11T08:40:20;103411.31;;;-8.06;99.16
60319;BME280;46163;52.306;5.634;2024-01-11T08:42:46;103426.41;;;-7.74;99.42
60319;BME280;46163;52.306;5.634;2024-01-11T08:45:11;103423.44;;;-7.45;100.00
60319;BME280;46163;52.306;5.634;2024-01-11T08:47:44;103417.84;;;-7.16;100.00
60319;BME280;46163;52.306;5.634;2024-01-11T08:50:12;103432.09;;;-6.90;100.00
60319;BME280;46163;52.306;5.634;2024-01-11T08:52:38;103426.59;;;-6.70;100.00
60319;BME280;46163;52.306;5.634;2024-01-11T08:55:05;103408.38;;;-6.64;100.00
60319;BME280;46163;52.306;5.634;2024-01-11T08:57:30;103421.72;;;-6.38;100.00
60319;BME280;46163;52.306;5.634;2024-01-11T08:59:56;103423.13;;;-6.21;100.00
60319;BME280;46163;52.306;5.634;2024-01-11T09:02:21;103421.03;;;-6.03;100.00
60319;BME280;46163;52.306;5.634;2024-01-11T09:04:48;103434.75;;;-6.44;100.00
60319;BME280;46163;52.306;5.634;2024-01-11T09:07:13;103421.00;;;-7.57;87.97
60319;BME280;46163;52.306;5.634;2024-01-11T09:09:39;103423.00;;;-8.49;85.12
60319;BME280;46163;52.306;5.634;2024-01-11T09:12:05;103433.41;;;-9.81;85.84
60319;BME280;46163;52.306;5.634;2024-01-11T09:14:30;103449.75;;;-9.93;95.37
60319;BME280;46163;52.306;5.634;2024-01-11T09:16:56;103449.63;;;-7.69;100.00
60319;BME280;46163;52.306;5.634;2024-01-11T09:19:21;103433.09;;;-6.46;100.00
60319;BME280;46163;52.306;5.634;2024-01-11T09:21:47;103449.06;;;-5.80;100.00
60319;BME280;46163;52.306;5.634;2024-01-11T09:24:12;103444.28;;;-5.58;100.00
60319;BME280;46163;52.306;5.634;2024-01-11T09:26:37;103434.63;;;-5.51;100.00
60319;BME280;46163;52.306;5.634;2024-01-11T09:29:03;103441.19;;;-5.35;100.00
60319;BME280;46163;52.306;5.634;2024-01-11T09:31:29;103425.50;;;-5.29;100.00
60319;BME280;46163;52.306;5.634;2024-01-11T09:33:54;103432.91;;;-5.14;100.00
60319;BME280;46163;52.306;5.634;2024-01-11T09:36:22;103410.25;;;-5.07;100.00
60319;BME280;46163;52.306;5.634;2024-01-11T09:38:47;103418.38;;;-4.85;100.00
60319;BME280;46163;52.306;5.634;2024-01-11T09:41:14;103433.50;;;-4.67;100.00
60319;BME280;46163;52.306;5.634;2024-01-11T09:43:42;103436.81;;;-4.62;100.00
60319;BME280;46163;52.306;5.634;2024-01-11T09:46:09;103431.34;;;-4.49;100.00
60319;BME280;46163;52.306;5.634;2024-01-11T09:48:38;103439.78;;;-4.41;99.09
60319;BME280;46163;52.306;5.634;2024-01-11T09:51:04;103431.16;;;-4.43;97.30
60319;BME280;46163;52.306;5.634;2024-01-11T09:53:33;103440.84;;;-4.17;98.86
60319;BME280;46163;52.306;5.634;2024-01-11T09:55:59;103435.22;;;-5.01;84.99
60319;BME280;46163;52.306;5.634;2024-01-11T09:58:25;103452.00;;;-6.43;77.83
60319;BME280;46163;52.306;5.634;2024-01-11T10:00:54;103456.59;;;-8.52;84.47
60319;BME280;46163;52.306;5.634;2024-01-11T10:03:22;103457.78;;;-8.03;99.10
60319;BME280;46163;52.306;5.634;2024-01-11T10:05:49;103461.53;;;-6.43;100.00
60319;BME280;46163;52.306;5.634;2024-01-11T10:08:15;103453.44;;;-4.67;100.00
60319;BME280;46163;52.306;5.634;2024-01-11T10:10:41;103437.00;;;-4.34;100.00
60319;BME280;46163;52.306;5.634;2024-01-11T10:13:06;103443.19;;;-4.07;100.00
60319;BME280;46163;52.306;5.634;2024-01-11T10:15:32;103455.72;;;-3.90;100.00
60319;BME280;46163;52.306;5.634;2024-01-11T10:17:57;103445.75;;;-3.76;100.00
60319;BME280;46163;52.306;5.634;2024-01-11T10:20:23;103460.09;;;-3.61;100.00
60319;BME280;46163;52.306;5.634;2024-01-11T10:22:49;103451.28;;;-3.57;97.62
60319;BME280;46163;52.306;5.634;2024-01-11T10:25:16;103441.41;;;-3.46;100.00
60319;BME280;46163;52.306;5.634;2024-01-11T10:27:44;103460.16;;;-3.34;100.00
60319;BME280;46163;52.306;5.634;2024-01-11T10:30:11;103463.25;;;-3.22;100.00
60319;BME280;46163;52.306;5.634;2024-01-11T10:32:44;103458.56;;;-3.10;100.00
60319;BME280;46163;52.306;5.634;2024-01-11T10:35:10;103453.75;;;-2.96;100.00
60319;BME280;46163;52.306;5.634;2024-01-11T10:37:36;103486.59;;;-2.91;99.38
60319;BME280;46163;52.306;5.634;2024-01-11T10:40:04;103481.59;;;-3.54;96.72
60319;BME280;46163;52.306;5.634;2024-01-11T10:42:50;103481.00;;;-3.64;96.34
60319;BME280;46163;52.306;5.634;2024-01-11T10:45:20;103483.72;;;-5.84;78.67
60319;BME280;46163;52.306;5.634;2024-01-11T10:47:56;103485.97;;;-7.15;83.90
60319;BME280;46163;52.306;5.634;2024-01-11T10:50:25;103494.94;;;-6.79;97.47
60319;BME280;46163;52.306;5.634;2024-01-11T10:53:00;103487.16;;;-5.01;100.00
60319;BME280;46163;52.306;5.634;2024-01-11T10:55:30;103473.22;;;-3.64;100.00
60319;BME280;46163;52.306;5.634;2024-01-11T10:57:57;103472.72;;;-3.19;100.00
60319;BME280;46163;52.306;5.634;2024-01-11T11:00:23;103469.78;;;-3.08;100.00
60319;BME280;46163;52.306;5.634;2024-01-11T11:02:50;103474.47;;;-2.92;100.00
60319;BME280;46163;52.306;5.634;2024-01-11T11:05:18;103475.81;;;-2.80;100.00
60319;BME280;46163;52.306;5.634;2024-01-11T11:07:47;103470.28;;;-2.69;99.83
60319;BME280;46163;52.306;5.634;2024-01-11T11:10:15;103471.50;;;-2.54;99.77
60319;BME280;46163;52.306;5.634;2024-01-11T11:12:44;103468.66;;;-2.47;99.58
60319;BME280;46163;52.306;5.634;2024-01-11T11:15:11;103467.00;;;-2.49;96.38
60319;BME280;46163;52.306;5.634;2024-01-11T11:17:38;103472.63;;;-2.37;99.58
60319;BME280;46163;52.306;5.634;2024-01-11T11:20:08;103477.34;;;-2.21;99.46
60319;BME280;46163;52.306;5.634;2024-01-11T11:22:37;103470.94;;;-2.13;98.43
60319;BME280;46163;52.306;5.634;2024-01-11T11:25:11;103467.38;;;-2.10;94.66
60319;BME280;46163;52.306;5.634;2024-01-11T11:27:48;103466.09;;;-1.98;98.07
60319;BME280;46163;52.306;5.634;2024-01-11T11:30:14;103461.41;;;-1.89;96.97
60319;BME280;46163;52.306;5.634;2024-01-11T11:32:43;103447.56;;;-4.09;74.62
60319;BME280;46163;52.306;5.634;2024-01-11T11:35:09;103460.09;;;-6.61;82.89
60319;BME280;46163;52.306;5.634;2024-01-11T11:37:38;103460.31;;;-6.73;97.03
60319;BME280;46163;52.306;5.634;2024-01-11T11:40:10;103445.13;;;-4.81;100.00
60319;BME280;46163;52.306;5.634;2024-01-11T11:42:36;103438.13;;;-2.96;100.00
60319;BME280;46163;52.306;5.634;2024-01-11T11:45:01;103414.59;;;-2.42;100.00
60319;BME280;46163;52.306;5.634;2024-01-11T11:47:34;103418.63;;;-2.08;100.00
60319;BME280;46163;52.306;5.634;2024-01-11T11:50:10;103409.34;;;-1.93;100.00
60319;BME280;46163;52.306;5.634;2024-01-11T11:52:39;103406.91;;;-1.75;99.98
60319;BME280;46163;52.306;5.634;2024-01-11T11:55:06;103389.03;;;-1.62;98.41
60319;BME280;46163;52.306;5.634;2024-01-11T11:57:33;103384.72;;;-1.41;99.44
60319;BME280;46163;52.306;5.634;2024-01-11T11:59:59;103395.34;;;-1.24;99.35
60319;BME280;46163;52.306;5.634;2024-01-11T12:02:26;103386.03;;;-1.09;98.84
60319;BME280;46163;52.306;5.634;2024-01-11T12:04:53;103384.56;;;-0.94;97.73
60319;BME280;46163;52.306;5.634;2024-01-11T12:07:22;103379.19;;;-0.91;97.18
60319;BME280;46163;52.306;5.634;2024-01-11T12:09:49;103391.03;;;-0.82;95.90
60319;BME280;46163;52.306;5.634;2024-01-11T12:12:16;103382.88;;;-0.75;95.47
60319;BME280;46163;52.306;5.634;2024-01-11T12:14:43;103381.78;;;-1.11;83.52
60319;BME280;46163;52.306;5.634;2024-01-11T12:17:09;103382.84;;;-3.88;73.58
60319;BME280;46163;52.306;5.634;2024-01-11T12:19:34;103387.84;;;-5.87;81.13
60319;BME280;46163;52.306;5.634;2024-01-11T12:22:00;103399.97;;;-6.77;91.84
60319;BME280;46163;52.306;5.634;2024-01-11T12:24:25;103383.44;;;-4.73;100.00
60319;BME280;46163;52.306;5.634;2024-01-11T12:26:52;103381.44;;;-2.90;100.00
60319;BME280;46163;52.306;5.634;2024-01-11T12:29:19;103369.97;;;-1.87;100.00
60319;BME280;46163;52.306;5.634;2024-01-11T12:31:44;103358.25;;;-1.54;100.00
60319;BME280;46163;52.306;5.634;2024-01-11T12:34:11;103370.25;;;-1.28;100.00
60319;BME280;46163;52.306;5.634;2024-01-11T12:36:37;103342.63;;;-1.13;99.04
60319;BME280;46163;52.306;5.634;2024-01-11T12:39:03;103362.47;;;-0.87;98.89
60319;BME280;46163;52.306;5.634;2024-01-11T12:41:30;103338.56;;;-0.78;97.87